createdAt,value
2022-10-19T00:01:05.879Z,83.18
2022-10-19T00:03:33.668Z,83.00
2022-10-19T00:06:00.835Z,83.69
2022-10-19T00:08:27.755Z,85.26
2022-10-19T00:10:54.487Z,85.69
2022-10-19T00:13:21.367Z,85.43
2022-10-19T00:15:48.091Z,84.55
2022-10-19T00:18:14.848Z,84.47
2022-10-19T00:20:41.559Z,84.69
2022-10-19T00:23:08.491Z,82.18
2022-10-19T00:25:35.227Z,85.09
2022-10-19T00:28:02.111Z,85.45
2022-10-19T00:30:28.858Z,85.43
2022-10-19T00:32:55.584Z,84.68
2022-10-19T00:35:22.327Z,84.00
2022-10-19T00:37:49.210Z,84.04
2022-10-19T00:40:15.911Z,84.36
2022-10-19T00:42:42.782Z,84.90
2022-10-19T00:45:17.901Z,85.73
2022-10-19T00:47:45.292Z,84.65
2022-10-19T00:50:13.962Z,85.94
2022-10-19T00:52:40.893Z,85.39
2022-10-19T00:55:08.460Z,85.10
2022-10-19T00:57:35.689Z,84.91
2022-10-19T01:00:05.840Z,83.60
2022-10-19T01:02:32.907Z,83.21
2022-10-19T01:04:59.840Z,83.77
2022-10-19T01:07:27.785Z,82.84
2022-10-19T01:09:54.925Z,82.84
2022-10-19T01:12:24.512Z,84.23
2022-10-19T01:15:11.622Z,83.15
2022-10-19T01:18:10.965Z,82.71
2022-10-19T01:20:55.988Z,85.02
2022-10-19T01:23:56.245Z,84.88
2022-10-19T01:26:22.988Z,85.69
2022-10-19T01:29:28.644Z,87.20
2022-10-19T01:32:20.164Z,85.98
2022-10-19T01:34:49.955Z,86.38
2022-10-19T01:37:55.747Z,84.43
2022-10-19T01:40:31.833Z,84.04
2022-10-19T01:43:03.292Z,85.09
2022-10-19T01:45:48.862Z,85.14
2022-10-19T01:48:19.352Z,84.87
2022-10-19T01:50:51.064Z,85.13
2022-10-19T01:53:19.019Z,86.80
2022-10-19T01:55:49.445Z,88.03
2022-10-19T01:58:19.296Z,87.56
2022-10-19T02:00:47.306Z,83.90
2022-10-19T02:03:15.500Z,85.42
2022-10-19T02:05:43.322Z,86.01
2022-10-19T02:08:18.539Z,85.47
2022-10-19T02:10:45.841Z,85.06
2022-10-19T02:13:14.271Z,85.11
2022-10-19T02:15:45.073Z,86.92
2022-10-19T02:18:14.275Z,88.18
2022-10-19T02:20:40.991Z,89.13
2022-10-19T02:23:08.430Z,88.62
2022-10-19T02:25:35.237Z,88.54
2022-10-19T02:28:03.035Z,88.13
2022-10-19T02:30:29.799Z,88.09
2022-10-19T02:32:56.962Z,88.92
2022-10-19T02:35:23.683Z,89.33
2022-10-19T02:37:50.519Z,87.63
2022-10-19T02:40:17.304Z,87.93
2022-10-19T02:42:49.091Z,88.80
2022-10-19T02:45:24.227Z,89.10
2022-10-19T02:47:55.149Z,87.55
2022-10-19T02:50:22.756Z,87.92
2022-10-19T02:52:49.599Z,88.79
2022-10-19T02:55:16.397Z,88.13
2022-10-19T02:57:43.123Z,88.12
2022-10-19T03:00:10.645Z,88.72
2022-10-19T03:02:37.523Z,88.97
2022-10-19T03:05:05.313Z,89.03
2022-10-19T03:07:32.458Z,89.96
2022-10-19T03:09:59.550Z,89.73
2022-10-19T03:12:26.218Z,91.09
2022-10-19T03:14:53.210Z,91.11
2022-10-19T03:17:20.121Z,89.85
2022-10-19T03:19:47.022Z,90.26
2022-10-19T03:22:15.025Z,89.36
2022-10-19T03:24:41.773Z,90.86
2022-10-19T03:27:08.502Z,89.83
2022-10-19T03:29:35.820Z,89.52
2022-10-19T03:32:02.540Z,88.05
2022-10-19T03:34:29.272Z,87.80
2022-10-19T03:36:56.829Z,87.71
2022-10-19T03:39:23.618Z,88.76
2022-10-19T03:41:50.407Z,87.19
2022-10-19T03:44:17.214Z,88.27
2022-10-19T03:46:43.965Z,88.46
2022-10-19T03:49:11.602Z,87.80
2022-10-19T03:51:38.336Z,86.68
2022-10-19T03:54:07.651Z,87.60
2022-10-19T03:56:35.746Z,89.29
2022-10-19T03:59:04.776Z,90.13
2022-10-19T04:01:37.488Z,89.66
2022-10-19T04:04:07.045Z,89.83
2022-10-19T04:06:36.575Z,89.50
2022-10-19T04:09:04.383Z,89.76
2022-10-19T04:11:32.568Z,89.43
2022-10-19T04:14:00.055Z,90.22
2022-10-19T04:16:28.560Z,89.09
2022-10-19T04:18:55.490Z,89.55
2022-10-19T04:21:26.603Z,90.10
2022-10-19T04:23:54.112Z,89.53
2022-10-19T04:26:21.208Z,88.26
2022-10-19T04:28:48.152Z,89.98
2022-10-19T04:31:15.166Z,90.16
2022-10-19T04:33:42.346Z,89.07
2022-10-19T04:36:10.733Z,89.57
2022-10-19T04:38:38.096Z,89.59
2022-10-19T04:41:08.252Z,89.55
2022-10-19T04:43:35.099Z,89.18
2022-10-19T04:46:06.666Z,89.25
2022-10-19T04:48:35.043Z,88.85
2022-10-19T04:51:02.169Z,89.86
2022-10-19T04:53:29.205Z,88.57
2022-10-19T04:55:56.143Z,86.06
2022-10-19T04:58:22.963Z,86.49
2022-10-19T05:00:49.775Z,86.26
2022-10-19T05:03:17.038Z,86.92
2022-10-19T05:05:43.926Z,87.30
2022-10-19T05:08:12.043Z,87.57
2022-10-19T05:13:20.025Z,87.30
2022-10-19T05:16:00.672Z,87.86
2022-10-19T05:18:28.443Z,87.90
2022-10-19T05:21:09.663Z,87.03
2022-10-19T05:23:36.590Z,87.76
2022-10-19T05:26:10.073Z,87.29
2022-10-19T05:28:38.105Z,88.04
2022-10-19T05:31:19.001Z,88.98
2022-10-19T05:33:46.545Z,89.25
2022-10-19T05:36:25.521Z,88.84
2022-10-19T05:38:54.063Z,88.19
2022-10-19T05:41:21.529Z,89.00
2022-10-19T05:43:52.767Z,88.39
2022-10-19T05:46:20.105Z,87.76
2022-10-19T05:48:47.800Z,87.41
2022-10-19T05:51:18.144Z,88.65
2022-10-19T05:53:46.323Z,88.64
2022-10-19T05:56:16.475Z,88.56
2022-10-19T05:58:44.121Z,88.79
2022-10-19T06:01:12.124Z,88.63
2022-10-19T06:03:39.007Z,89.39
2022-10-19T06:06:08.127Z,88.36
2022-10-19T06:08:35.561Z,88.11
2022-10-19T06:11:06.064Z,87.86
2022-10-19T06:13:32.915Z,87.99
2022-10-19T06:15:59.636Z,88.29
2022-10-19T06:18:26.458Z,87.89
2022-10-19T06:20:53.222Z,87.25
2022-10-19T06:23:19.985Z,87.50
2022-10-19T06:25:46.857Z,87.56
2022-10-19T06:28:13.930Z,87.62
2022-10-19T06:30:41.369Z,86.68
2022-10-19T06:33:08.294Z,86.80
2022-10-19T06:35:35.395Z,86.51
2022-10-19T06:38:02.183Z,86.19
2022-10-19T06:40:29.033Z,87.08
2022-10-19T06:42:56.549Z,86.31
2022-10-19T06:45:23.321Z,86.15
2022-10-19T06:47:50.178Z,86.12
2022-10-19T06:50:17.103Z,85.51
2022-10-19T06:52:44.199Z,84.51
2022-10-19T06:55:10.871Z,84.71
2022-10-19T06:57:37.848Z,84.14
2022-10-19T07:00:06.020Z,85.57
2022-10-19T07:02:33.416Z,83.61
2022-10-19T07:05:04.441Z,83.48
2022-10-19T07:07:34.726Z,83.69
2022-10-19T07:10:01.918Z,83.42
2022-10-19T07:12:29.278Z,80.74
2022-10-19T07:14:56.246Z,81.04
2022-10-19T07:17:22.979Z,81.20
2022-10-19T07:19:49.698Z,81.74
2022-10-19T07:22:21.155Z,82.57
2022-10-19T07:24:52.297Z,81.48
2022-10-19T07:27:19.155Z,81.07
2022-10-19T07:29:45.984Z,81.96
2022-10-19T07:32:12.771Z,80.94
2022-10-19T07:34:39.554Z,80.52
2022-10-19T07:37:06.442Z,80.40
2022-10-19T07:39:33.265Z,81.37
2022-10-19T07:42:00.028Z,81.28
2022-10-19T07:44:27.047Z,82.05
2022-10-19T07:46:53.782Z,81.47
2022-10-19T07:49:20.840Z,81.38
2022-10-19T07:51:47.881Z,81.23
2022-10-19T07:54:14.669Z,81.30
2022-10-19T07:56:41.463Z,80.23
2022-10-19T07:59:08.287Z,80.53
2022-10-19T08:01:41.135Z,81.15
2022-10-19T08:06:54.829Z,80.95
2022-10-19T08:09:51.411Z,81.00
2022-10-19T08:12:12.485Z,79.76
2022-10-19T08:14:40.922Z,79.61
2022-10-19T08:17:08.970Z,79.88
2022-10-19T08:19:35.746Z,79.61
2022-10-19T08:22:02.445Z,79.42
2022-10-19T08:24:29.708Z,79.29
2022-10-19T08:26:57.291Z,79.45
2022-10-19T08:29:25.592Z,79.11
2022-10-19T08:31:54.667Z,79.72
2022-10-19T08:34:21.555Z,79.73
2022-10-19T08:36:49.241Z,81.42
2022-10-19T08:39:17.851Z,79.88
2022-10-19T08:41:53.271Z,80.13
2022-10-19T08:44:45.438Z,79.40
2022-10-19T08:47:44.483Z,80.17
2022-10-19T08:50:24.640Z,79.75
2022-10-19T08:53:01.412Z,79.69
2022-10-19T08:55:37.888Z,79.47
2022-10-19T08:58:40.974Z,78.33
2022-10-19T09:01:33.881Z,78.44
2022-10-19T09:04:09.448Z,77.83
2022-10-19T09:06:50.008Z,76.57
2022-10-19T09:09:19.233Z,76.28
2022-10-19T09:11:50.945Z,76.55
2022-10-19T09:14:39.134Z,76.11
2022-10-19T09:17:12.175Z,76.07
2022-10-19T09:19:38.957Z,76.45
2022-10-19T09:22:17.815Z,76.01
2022-10-19T09:24:51.919Z,75.27
2022-10-19T09:27:27.102Z,75.58
2022-10-19T09:29:57.920Z,74.87
2022-10-19T09:32:37.827Z,75.22
2022-10-19T09:35:13.987Z,75.44
2022-10-19T09:37:44.740Z,75.81
2022-10-19T09:40:28.642Z,75.61
2022-10-19T09:42:59.434Z,74.43
2022-10-19T09:45:34.009Z,75.32
2022-10-19T09:48:07.215Z,75.08
2022-10-19T09:50:43.169Z,75.21
2022-10-19T09:53:17.950Z,74.74
2022-10-19T09:58:20.289Z,75.45
2022-10-19T10:00:52.167Z,75.32
2022-10-19T10:03:39.550Z,74.76
2022-10-19T10:06:10.634Z,74.42
2022-10-19T10:08:38.119Z,74.75
2022-10-19T10:11:10.927Z,74.55
2022-10-19T10:13:40.367Z,74.43
2022-10-19T10:16:09.294Z,74.50
2022-10-19T10:18:39.575Z,73.58
2022-10-19T10:21:15.254Z,72.88
2022-10-19T10:23:42.088Z,73.30
2022-10-19T10:26:18.984Z,72.99
2022-10-19T10:28:50.341Z,72.89
2022-10-19T10:31:23.413Z,73.12
2022-10-19T10:34:22.942Z,70.79
2022-10-19T10:36:55.400Z,72.25
2022-10-19T10:39:24.986Z,71.85
2022-10-19T10:41:52.080Z,72.15
2022-10-19T10:44:24.485Z,71.82
2022-10-19T10:46:56.575Z,71.59
2022-10-19T10:49:34.274Z,71.09
2022-10-19T10:52:05.146Z,71.01
2022-10-19T10:54:32.819Z,70.15
2022-10-19T10:57:13.169Z,70.81
2022-10-19T11:00:03.885Z,71.28
2022-10-19T11:02:49.158Z,70.60
2022-10-19T11:05:26.742Z,71.41
2022-10-19T11:08:16.114Z,70.23
2022-10-19T11:10:48.915Z,69.88
2022-10-19T11:13:44.620Z,69.44
2022-10-19T11:16:13.604Z,68.41
2022-10-19T11:18:44.628Z,68.41
2022-10-19T11:21:12.340Z,68.72
2022-10-19T11:23:51.965Z,68.38
2022-10-19T11:26:55.822Z,67.55
2022-10-19T11:29:45.501Z,69.33
2022-10-19T11:32:23.743Z,68.00
2022-10-19T11:35:13.378Z,67.04
2022-10-19T11:38:14.212Z,68.05
2022-10-19T11:41:16.950Z,68.27
2022-10-19T11:44:12.157Z,68.12
2022-10-19T11:46:45.708Z,68.92
2022-10-19T11:49:44.659Z,68.15
2022-10-19T11:52:32.923Z,68.95
2022-10-19T11:55:15.913Z,68.41
2022-10-19T11:57:42.587Z,69.20
2022-10-19T12:00:27.282Z,69.03
2022-10-19T12:03:10.348Z,69.08
2022-10-19T12:05:49.151Z,67.96
2022-10-19T12:08:36.994Z,69.21
2022-10-19T12:11:12.759Z,69.66
2022-10-19T12:13:46.852Z,69.22
2022-10-19T12:16:14.365Z,69.00
2022-10-19T12:19:02.078Z,68.65
2022-10-19T12:21:33.286Z,68.93
2022-10-19T12:24:02.519Z,68.55
2022-10-19T12:26:31.747Z,69.00
2022-10-19T12:29:01.091Z,67.69
2022-10-19T12:31:28.360Z,68.26
2022-10-19T12:34:45.311Z,66.57
2022-10-19T12:37:50.777Z,66.95
2022-10-19T12:40:28.612Z,67.40
2022-10-19T12:43:12.425Z,67.46
2022-10-19T12:46:07.268Z,67.46
2022-10-19T12:48:36.405Z,68.32
2022-10-19T12:51:06.138Z,68.31
2022-10-19T12:53:41.560Z,68.68
2022-10-19T12:56:11.429Z,69.89
2022-10-19T12:58:46.764Z,69.77
2022-10-19T13:01:44.266Z,70.33
2022-10-19T13:04:18.255Z,69.96
2022-10-19T13:06:51.146Z,71.03
2022-10-19T13:09:28.283Z,70.98
2022-10-19T13:12:16.303Z,72.13
2022-10-19T13:15:25.609Z,71.97
2022-10-19T13:17:52.798Z,72.52
2022-10-19T13:20:19.784Z,71.73
2022-10-19T13:22:46.596Z,72.27
2022-10-19T13:25:16.440Z,72.44
2022-10-19T13:27:44.665Z,71.74
2022-10-19T13:30:36.479Z,70.72
2022-10-19T13:33:35.046Z,71.77
2022-10-19T13:36:02.703Z,70.82
2022-10-19T13:38:49.476Z,68.89
2022-10-19T13:41:22.533Z,68.88
2022-10-19T13:43:52.260Z,69.70
2022-10-19T13:46:22.693Z,71.10
2022-10-19T13:49:01.829Z,71.19
2022-10-19T13:51:59.375Z,71.65
2022-10-19T13:54:52.109Z,71.32
2022-10-19T13:57:25.332Z,70.67
2022-10-19T13:59:55.171Z,71.00
2022-10-19T14:02:47.097Z,71.69
2022-10-19T14:05:25.890Z,71.92
2022-10-19T14:08:15.677Z,71.67
2022-10-19T14:11:00.030Z,71.64
2022-10-19T14:13:28.301Z,73.24
2022-10-19T14:15:56.894Z,72.44
2022-10-19T14:18:32.264Z,72.64
2022-10-19T14:21:07.689Z,72.41
2022-10-19T14:23:36.839Z,72.38
2022-10-19T14:26:07.978Z,71.49
2022-10-19T14:28:35.054Z,71.74
2022-10-19T14:31:10.600Z,71.97
2022-10-19T14:33:41.366Z,71.08
2022-10-19T14:36:15.110Z,70.32
2022-10-19T14:38:46.623Z,69.36
2022-10-19T14:41:29.165Z,69.21
2022-10-19T14:43:57.629Z,69.30
2022-10-19T14:46:31.046Z,69.25
2022-10-19T14:49:05.552Z,69.77
2022-10-19T14:51:52.515Z,68.80
2022-10-19T14:54:31.254Z,69.27
2022-10-19T14:57:08.061Z,69.85
2022-10-19T14:59:53.550Z,70.50
2022-10-19T15:02:27.076Z,71.81
2022-10-19T15:04:55.486Z,72.18
2022-10-19T15:07:38.249Z,71.75
2022-10-19T15:10:07.750Z,71.54
2022-10-19T15:12:40.231Z,71.59
2022-10-19T15:15:15.238Z,71.63
2022-10-19T15:17:51.710Z,71.98
2022-10-19T15:20:29.534Z,72.15
2022-10-19T15:22:58.112Z,72.39
2022-10-19T15:25:35.406Z,71.81
2022-10-19T15:28:30.325Z,72.50
2022-10-19T15:31:02.285Z,72.67
2022-10-19T15:33:29.341Z,72.84
2022-10-19T15:36:08.296Z,72.06
2022-10-19T15:38:35.760Z,72.14
2022-10-19T15:41:04.213Z,72.42
2022-10-19T15:43:31.078Z,72.88
2022-10-19T15:46:03.763Z,73.73
2022-10-19T15:48:51.050Z,74.47
2022-10-19T15:51:23.413Z,74.79
2022-10-19T15:53:53.162Z,74.42
2022-10-19T15:56:21.125Z,75.41
2022-10-19T15:58:52.595Z,75.72
2022-10-19T16:01:22.649Z,77.01
2022-10-19T16:03:49.935Z,76.69
2022-10-19T16:06:18.029Z,77.21
2022-10-19T16:08:47.890Z,76.12
2022-10-19T16:11:19.620Z,76.19
2022-10-19T16:13:46.444Z,76.94
2022-10-19T16:16:27.104Z,77.89
2022-10-19T16:18:54.558Z,78.17
2022-10-19T16:21:50.004Z,77.54
2022-10-19T16:24:17.316Z,77.40
2022-10-19T16:26:44.011Z,77.83
2022-10-19T16:29:10.758Z,77.52
2022-10-19T16:31:38.074Z,77.79
2022-10-19T16:34:04.820Z,77.72
2022-10-19T16:36:31.504Z,76.52
2022-10-19T16:39:00.423Z,76.64
2022-10-19T16:41:27.171Z,75.88
2022-10-19T16:43:55.296Z,75.71
2022-10-19T16:46:23.198Z,76.38
2022-10-19T16:48:50.278Z,76.53
2022-10-19T16:51:25.717Z,76.64
2022-10-19T16:53:57.052Z,78.17
2022-10-19T16:56:25.377Z,77.81
2022-10-19T16:59:03.837Z,78.79
2022-10-19T17:01:31.777Z,79.46
2022-10-19T17:03:58.595Z,78.90
2022-10-19T17:06:26.886Z,79.80
2022-10-19T17:11:42.798Z,80.05
2022-10-19T17:14:12.297Z,80.02
2022-10-19T17:16:39.693Z,81.43
2022-10-19T17:19:07.373Z,80.48
2022-10-19T17:21:38.333Z,79.47
2022-10-19T17:24:07.559Z,79.27
2022-10-19T17:26:36.692Z,78.06
2022-10-19T17:29:04.740Z,77.76
2022-10-19T17:31:31.919Z,78.42
2022-10-19T17:34:00.710Z,79.89
2022-10-19T17:36:32.886Z,78.22
2022-10-19T17:39:05.540Z,78.89
2022-10-19T17:41:32.355Z,80.29
2022-10-19T17:43:59.129Z,80.43
2022-10-19T17:46:29.390Z,79.77
2022-10-19T17:48:56.911Z,79.89
2022-10-19T17:51:29.426Z,79.10
2022-10-19T17:53:58.633Z,79.71
2022-10-19T17:56:25.883Z,79.57
2022-10-19T17:58:53.063Z,78.72
2022-10-19T18:01:21.975Z,79.79
2022-10-19T18:03:49.662Z,80.20
2022-10-19T18:06:28.027Z,78.63
2022-10-19T18:08:56.364Z,79.56
2022-10-19T18:11:25.579Z,80.34
2022-10-19T18:13:54.425Z,80.65
2022-10-19T18:16:24.250Z,81.39
2022-10-19T18:18:52.964Z,80.37
2022-10-19T18:21:22.094Z,81.67
2022-10-19T18:23:48.987Z,83.88
2022-10-19T18:26:19.730Z,82.91
2022-10-19T18:28:46.815Z,83.11
2022-10-19T18:31:16.118Z,83.91
2022-10-19T18:33:43.087Z,83.34
2022-10-19T18:36:10.830Z,82.60
2022-10-19T18:38:38.021Z,84.23
2022-10-19T18:41:07.440Z,83.19
2022-10-19T18:43:34.253Z,82.73
2022-10-19T18:46:01.339Z,82.51
2022-10-19T18:48:29.449Z,83.09
2022-10-19T18:50:57.172Z,82.52
2022-10-19T18:53:24.571Z,82.57
2022-10-19T18:56:01.837Z,82.41
2022-10-19T18:58:31.015Z,82.12
2022-10-19T19:01:19.499Z,82.32
2022-10-19T19:03:49.717Z,82.66
2022-10-19T19:06:24.845Z,83.04
2022-10-19T19:08:54.363Z,83.57
2022-10-19T19:11:23.914Z,82.79
2022-10-19T19:13:52.052Z,83.25
2022-10-19T19:16:19.353Z,83.67
2022-10-19T19:18:46.404Z,84.05
2022-10-19T19:21:21.473Z,83.40
2022-10-19T19:23:48.679Z,84.18
2022-10-19T19:26:15.959Z,83.87
2022-10-19T19:28:47.623Z,81.82
2022-10-19T19:31:18.821Z,82.73
2022-10-19T19:33:47.050Z,82.83
2022-10-19T19:36:15.843Z,82.59
2022-10-19T19:38:45.341Z,83.88
2022-10-19T19:41:14.179Z,83.82
2022-10-19T19:43:42.575Z,82.64
2022-10-19T19:46:15.457Z,84.09
2022-10-19T19:48:43.860Z,83.64
2022-10-19T19:51:15.802Z,85.52
2022-10-19T19:53:43.148Z,83.92
2022-10-19T19:56:11.416Z,84.86
2022-10-19T19:58:39.390Z,84.57
2022-10-19T20:01:12.519Z,84.55
2022-10-19T20:03:40.913Z,84.98
2022-10-19T20:06:08.008Z,83.79
2022-10-19T20:08:36.364Z,83.77
2022-10-19T20:11:04.777Z,84.17
2022-10-19T20:13:31.757Z,84.97
2022-10-19T20:16:00.748Z,85.45
2022-10-19T20:18:27.516Z,85.42
2022-10-19T20:20:54.475Z,85.13
2022-10-19T20:23:21.259Z,85.10
2022-10-19T20:25:48.025Z,86.04
2022-10-19T20:28:14.819Z,86.59
2022-10-19T20:30:44.497Z,85.65
2022-10-19T20:33:11.288Z,86.64
2022-10-19T20:35:37.968Z,85.38
2022-10-19T20:38:04.716Z,85.16
2022-10-19T20:40:31.481Z,84.50
2022-10-19T20:42:58.131Z,84.99
2022-10-19T20:45:24.834Z,84.73
2022-10-19T20:47:51.544Z,85.35
2022-10-19T20:50:20.674Z,85.42
2022-10-19T20:52:48.748Z,84.84
2022-10-19T20:55:15.576Z,84.61
2022-10-19T20:57:42.367Z,84.65
2022-10-19T21:00:09.764Z,84.03
2022-10-19T21:02:36.949Z,83.85
2022-10-19T21:05:04.215Z,82.59
2022-10-19T21:07:31.002Z,82.75
2022-10-19T21:09:57.720Z,82.67
2022-10-19T21:12:24.466Z,82.50
2022-10-19T21:14:51.181Z,81.38
2022-10-19T21:17:17.916Z,82.12
2022-10-19T21:19:44.632Z,81.47
2022-10-19T21:22:11.639Z,80.54
2022-10-19T21:24:39.491Z,80.02
2022-10-19T21:27:09.086Z,80.61
2022-10-19T21:30:01.228Z,79.85
2022-10-19T21:32:28.055Z,79.50
2022-10-19T21:34:54.824Z,80.45
2022-10-19T21:37:21.727Z,79.97
2022-10-19T21:39:48.469Z,80.31
2022-10-19T21:42:15.282Z,79.62
2022-10-19T21:44:42.056Z,80.08
2022-10-19T21:47:08.830Z,80.19
2022-10-19T21:49:35.522Z,79.60
2022-10-19T21:52:02.433Z,80.63
2022-10-19T21:54:29.415Z,80.30
2022-10-19T21:56:58.379Z,79.10
2022-10-19T21:59:25.100Z,80.52
2022-10-19T22:01:51.962Z,79.86
2022-10-19T22:04:18.951Z,79.71
2022-10-19T22:06:46.187Z,79.37
2022-10-19T22:09:15.875Z,80.12
2022-10-19T22:11:43.078Z,79.32
2022-10-19T22:14:10.630Z,79.01
2022-10-19T22:16:37.499Z,79.46
2022-10-19T22:19:05.150Z,79.36
2022-10-19T22:21:33.318Z,79.74
2022-10-19T22:24:11.576Z,79.58
2022-10-19T22:26:40.939Z,79.83
2022-10-19T22:29:08.021Z,80.21
2022-10-19T22:31:59.958Z,79.81
2022-10-19T22:34:26.789Z,79.87
2022-10-19T22:36:53.457Z,79.72
2022-10-19T22:39:20.235Z,79.46
2022-10-19T22:41:46.888Z,79.35
2022-10-19T22:44:13.601Z,79.39
2022-10-19T22:46:40.299Z,78.75
2022-10-19T22:49:07.126Z,78.90
2022-10-19T22:51:33.826Z,78.52
2022-10-19T22:54:00.702Z,79.21
2022-10-19T22:56:27.447Z,79.17
2022-10-19T22:58:58.308Z,78.66
2022-10-19T23:01:25.098Z,78.61
2022-10-19T23:03:51.838Z,78.29
2022-10-19T23:06:18.608Z,78.29
2022-10-19T23:08:45.479Z,79.24
2022-10-19T23:11:13.024Z,78.97
2022-10-19T23:13:39.824Z,79.05
2022-10-19T23:16:07.313Z,79.42
2022-10-19T23:18:36.687Z,80.82
2022-10-19T23:21:08.742Z,80.16
2022-10-19T23:23:36.945Z,80.25
2022-10-19T23:26:05.082Z,79.54
2022-10-19T23:28:33.787Z,80.61
2022-10-19T23:31:10.878Z,80.18
2022-10-19T23:33:38.038Z,80.29
2022-10-19T23:36:09.142Z,79.54
2022-10-19T23:38:36.432Z,79.50
2022-10-19T23:41:03.237Z,79.74
2022-10-19T23:43:30.212Z,79.36
2022-10-19T23:45:56.915Z,78.54
2022-10-19T23:48:23.846Z,79.63
2022-10-19T23:51:02.052Z,78.83
2022-10-19T23:53:30.288Z,79.62
2022-10-19T23:56:06.816Z,79.36
2022-10-19T23:58:33.907Z,79.63
